Аэропорт: им. Гейдара Алиева. Баку

ICAO: UBBB

METAR:
2019/03/26 13:00
UBBB 261300Z 18004KT 9999 FEW027 BKN200 09/04 Q1017 R88/CLRD// NOSIG
METAR:
2019/03/26 12:18
TAF UBBB 261115Z 2612/2712 08008KT 9999 SCT012 BKN025 TX09/2612Z TN06/2702Z 
      TEMPO 2612/2616 FEW025CB 
      BECMG 2616/2618 14008KT 
      TEMPO 2618/2706 18008KT 4000 -RA BR BKN006 OVC017